Time;durP1;ratioP1;P1;durP2;ratioP2;P2;SDS_P1;SDS_P2;PMS_P1;PMS_P2;Temp;Humidity;BMP_temperature;BMP_pressure;BME280_temperature;BME280_humidity;BME280_pressure;Samples;Min_cycle;Max_cycle;Signal;HPM_P1;HPM_P2
2021/01/11 00:00:09;;;;;;;31.73;13.50;;;2.80;99.90;;;;;;5081299;28;20210;-87
2021/01/11 00:02:37;;;;;;;26.20;14.17;;;2.80;99.90;;;;;;5083319;28;20195;-87
2021/01/11 00:05:07;;;;;;;24.47;12.27;;;2.80;99.90;;;;;;5088369;28;20205;-86
2021/01/11 00:07:33;;;;;;;27.33;15.07;;;2.80;99.90;;;;;;5085543;28;20202;-88
2021/01/11 00:09:59;;;;;;;29.27;15.77;;;2.80;99.90;;;;;;5077070;28;20226;-87
2021/01/11 00:12:27;;;;;;;25.83;15.00;;;2.90;99.90;;;;;;5085092;28;20714;-86
2021/01/11 00:14:53;;;;;;;29.43;16.00;;;2.80;99.90;;;;;;5088905;28;20233;-86
2021/01/11 00:17:19;;;;;;;27.27;14.90;;;2.90;99.90;;;;;;5081018;28;20304;-86
2021/01/11 00:19:49;;;;;;;31.50;16.87;;;2.80;99.90;;;;;;5088152;28;20217;-85
2021/01/11 00:22:15;;;;;;;29.30;16.27;;;2.90;99.90;;;;;;5087429;28;20612;-86
2021/01/11 00:24:41;;;;;;;29.17;15.50;;;2.90;99.90;;;;;;5083869;28;20201;-86
2021/01/11 00:27:07;;;;;;;27.23;15.33;;;2.80;99.90;;;;;;5083885;28;20210;-86
2021/01/11 00:29:38;;;;;;;25.83;14.83;;;2.80;99.90;;;;;;5086046;28;20229;-86
2021/01/11 00:32:05;;;;;;;27.30;15.60;;;2.90;99.90;;;;;;5085460;28;20198;-87
2021/01/11 00:34:31;;;;;;;26.23;14.93;;;2.90;99.90;;;;;;5087508;28;20215;-87
2021/01/11 00:36:58;;;;;;;29.00;16.23;;;2.90;99.90;;;;;;5084809;28;20664;-87
2021/01/11 00:39:28;;;;;;;31.30;17.00;;;2.90;99.90;;;;;;5087230;28;20585;-87
2021/01/11 00:41:58;;;;;;;27.27;16.43;;;2.90;99.90;;;;;;5081182;28;20240;-88
2021/01/11 00:44:25;;;;;;;28.10;15.50;;;2.90;99.90;;;;;;5087127;28;20198;-87
2021/01/11 00:46:58;;;;;;;27.23;15.60;;;2.90;99.90;;;;;;5088424;28;20255;-86
2021/01/11 00:49:24;;;;;;;32.90;16.40;;;2.90;99.90;;;;;;5083353;28;20217;-86
2021/01/11 00:51:50;;;;;;;30.43;17.53;;;2.90;99.90;;;;;;5087312;28;20565;-85
2021/01/11 00:54:19;;;;;;;29.03;16.27;;;2.90;99.90;;;;;;5089272;28;20213;-86
2021/01/11 00:56:48;;;;;;;28.07;16.00;;;2.90;99.90;;;;;;5088605;28;20201;-88
2021/01/11 00:59:14;;;;;;;28.90;16.33;;;2.90;99.90;;;;;;5088235;28;20224;-86
2021/01/11 01:01:49;;;;;;;30.63;17.10;;;2.90;99.90;;;;;;5091538;28;20258;-87
2021/01/11 01:04:17;;;;;;;33.17;18.33;;;2.90;99.90;;;;;;5088837;28;20194;-86
2021/01/11 01:06:43;;;;;;;33.87;17.37;;;2.90;99.90;;;;;;5088603;28;20620;-86
2021/01/11 01:09:10;;;;;;;30.47;17.47;;;2.80;99.90;;;;;;5084950;28;20222;-86
2021/01/11 01:11:37;;;;;;;28.93;16.70;;;2.80;99.90;;;;;;5091889;28;20208;-86
2021/01/11 01:14:04;;;;;;;30.03;17.97;;;2.90;99.90;;;;;;5086410;28;20233;-86
2021/01/11 01:16:31;;;;;;;32.03;16.47;;;2.90;99.90;;;;;;5089344;28;20229;-86
2021/01/11 01:18:57;;;;;;;34.37;18.20;;;2.90;99.90;;;;;;5089286;28;20251;-86
2021/01/11 01:21:30;;;;;;;30.07;17.27;;;2.90;99.90;;;;;;5085699;28;20201;-86
2021/01/11 01:23:56;;;;;;;30.07;18.07;;;2.90;99.90;;;;;;5088576;28;20664;-87
2021/01/11 01:26:25;;;;;;;29.77;16.97;;;2.90;99.90;;;;;;5086846;28;20259;-87
2021/01/11 01:28:52;;;;;;;29.53;17.40;;;2.90;99.90;;;;;;5083984;28;20226;-86
2021/01/11 01:31:18;;;;;;;30.73;17.17;;;2.90;99.90;;;;;;5084239;28;20198;-87
2021/01/11 01:33:44;;;;;;;30.70;17.33;;;2.90;99.90;;;;;;5089080;28;20240;-87
2021/01/11 01:36:11;;;;;;;31.47;18.50;;;2.90;99.90;;;;;;5088068;28;20206;-88
2021/01/11 01:38:38;;;;;;;31.13;18.20;;;2.90;99.90;;;;;;5091460;28;20201;-87
2021/01/11 01:41:05;;;;;;;29.87;17.60;;;2.80;99.90;;;;;;5087418;28;20198;-87
2021/01/11 01:43:31;;;;;;;32.77;17.90;;;2.90;99.90;;;;;;5087892;28;20215;-87
2021/01/11 01:45:57;;;;;;;30.40;16.90;;;2.80;99.90;;;;;;5085273;28;20261;-87
2021/01/11 01:48:24;;;;;;;30.40;16.87;;;2.80;99.90;;;;;;5089616;28;20220;-87
2021/01/11 01:50:50;;;;;;;30.87;16.37;;;2.90;99.90;;;;;;5083038;28;20206;-86
2021/01/11 01:53:16;;;;;;;26.83;15.63;;;2.80;99.90;;;;;;5089336;28;20221;-86
2021/01/11 01:55:44;;;;;;;34.00;17.40;;;2.70;99.90;;;;;;5086441;28;20600;-87
2021/01/11 01:58:10;;;;;;;32.33;16.97;;;2.70;99.90;;;;;;5111394;28;20206;-87
2021/01/11 02:00:37;;;;;;;30.70;16.73;;;2.70;99.90;;;;;;5097176;28;20624;-86
2021/01/11 02:03:04;;;;;;;30.80;16.90;;;2.70;99.90;;;;;;5086177;28;20566;-87
2021/01/11 02:05:30;;;;;;;32.47;17.17;;;2.70;99.90;;;;;;5089285;28;20198;-87
2021/01/11 02:08:06;;;;;;;29.07;16.53;;;2.80;99.90;;;;;;5088560;28;20198;-87
2021/01/11 02:10:50;;;;;;;30.77;17.20;;;2.80;99.90;;;;;;5089538;28;20329;-86
2021/01/11 02:13:46;;;;;;;32.70;16.50;;;2.80;99.90;;;;;;5090058;28;20224;-88
2021/01/11 02:16:23;;;;;;;31.13;16.57;;;2.70;99.90;;;;;;5090924;28;20610;-87
2021/01/11 02:18:56;;;;;;;31.40;17.10;;;2.80;99.90;;;;;;5089355;28;20225;-87
2021/01/11 02:21:51;;;;;;;29.27;16.27;;;2.80;99.90;;;;;;5088228;28;20209;-88
2021/01/11 02:24:39;;;;;;;32.07;16.70;;;2.80;99.90;;;;;;5089099;28;20207;-88
2021/01/11 02:27:34;;;;;;;28.93;16.23;;;2.80;99.90;;;;;;5091272;28;20668;-86
2021/01/11 02:30:09;;;;;;;30.03;17.80;;;2.90;99.90;;;;;;5082540;28;20221;-87
2021/01/11 02:32:38;;;;;;;29.03;16.03;;;2.80;99.90;;;;;;5088779;28;20229;-87
2021/01/11 02:35:08;;;;;;;32.07;17.63;;;2.80;99.90;;;;;;5095491;28;20235;-87
2021/01/11 02:37:37;;;;;;;33.87;17.60;;;2.90;99.90;;;;;;5090453;28;20201;-87
2021/01/11 02:40:04;;;;;;;33.00;17.17;;;2.80;99.90;;;;;;5092921;28;20222;-87
2021/01/11 02:42:31;;;;;;;30.27;17.23;;;2.80;99.90;;;;;;5094218;28;20190;-87
2021/01/11 02:44:57;;;;;;;28.10;16.13;;;2.80;99.90;;;;;;5094160;28;20250;-87
2021/01/11 02:47:30;;;;;;;30.10;16.10;;;2.80;99.90;;;;;;5090807;28;20652;-87
2021/01/11 02:49:58;;;;;;;31.70;16.90;;;2.80;99.90;;;;;;5092491;28;20268;-87
2021/01/11 02:52:34;;;;;;;29.43;16.70;;;2.80;99.90;;;;;;5091211;28;20392;-87
2021/01/11 02:55:07;;;;;;;30.83;16.73;;;2.80;99.90;;;;;;5094931;28;20718;-88
2021/01/11 02:57:48;;;;;;;29.60;16.33;;;2.90;99.90;;;;;;5093897;28;20678;-87
2021/01/11 03:00:17;;;;;;;35.30;18.83;;;2.80;99.90;;;;;;5091776;28;20217;-87
2021/01/11 03:02:47;;;;;;;33.60;18.33;;;2.90;99.90;;;;;;5096135;28;20201;-87
2021/01/11 03:05:15;;;;;;;31.70;18.40;;;2.90;99.90;;;;;;5092870;28;20265;-87
2021/01/11 03:07:56;;;;;;;32.87;18.10;;;2.90;99.90;;;;;;5094839;28;20208;-87
2021/01/11 03:10:22;;;;;;;34.47;19.63;;;2.90;99.90;;;;;;5089107;28;20232;-86
2021/01/11 03:12:48;;;;;;;32.77;19.03;;;2.90;99.90;;;;;;5099850;28;20648;-87
2021/01/11 03:15:15;;;;;;;33.40;19.80;;;3.00;99.90;;;;;;5087102;28;20284;-87
2021/01/11 03:17:42;;;;;;;31.03;18.93;;;3.00;99.90;;;;;;5075725;28;20340;-87
2021/01/11 03:20:11;;;;;;;33.77;18.70;;;3.00;99.90;;;;;;5078052;28;20222;-87
2021/01/11 03:22:38;;;;;;;29.20;16.47;;;2.90;99.90;;;;;;5075740;28;20195;-87
2021/01/11 03:25:06;;;;;;;28.40;15.37;;;2.90;99.90;;;;;;5085762;28;20288;-88
2021/01/11 03:27:32;;;;;;;27.07;16.00;;;2.90;99.90;;;;;;5096165;28;20580;-87
2021/01/11 03:29:59;;;;;;;31.07;16.13;;;2.90;99.90;;;;;;5088209;28;20215;-87
2021/01/11 03:32:25;;;;;;;26.87;14.50;;;2.90;99.90;;;;;;5093838;28;20703;-87
2021/01/11 03:34:51;;;;;;;25.37;13.67;;;2.90;99.90;;;;;;5096446;28;20202;-87
2021/01/11 03:37:19;;;;;;;26.60;15.07;;;2.90;99.90;;;;;;5095360;28;20206;-87
2021/01/11 03:39:45;;;;;;;26.17;14.27;;;2.90;99.90;;;;;;5095159;28;20223;-88
2021/01/11 03:42:12;;;;;;;29.03;15.33;;;2.90;99.90;;;;;;5095464;28;20202;-87
2021/01/11 03:44:38;;;;;;;27.20;14.57;;;2.90;99.90;;;;;;5086292;28;20653;-87
2021/01/11 03:47:04;;;;;;;26.67;14.10;;;2.90;99.90;;;;;;5095004;28;20202;-87
2021/01/11 03:49:30;;;;;;;27.13;14.80;;;2.90;99.90;;;;;;5100412;28;20578;-87
2021/01/11 03:52:00;;;;;;;25.03;13.43;;;2.90;99.90;;;;;;5098315;28;20213;-87
2021/01/11 03:54:28;;;;;;;26.60;14.40;;;2.90;99.90;;;;;;5099502;28;21288;-86
2021/01/11 03:56:54;;;;;;;25.67;14.10;;;3.00;99.90;;;;;;5107088;28;20205;-87
2021/01/11 03:59:20;;;;;;;23.70;14.10;;;2.90;99.90;;;;;;5103997;28;20232;-86
2021/01/11 04:01:47;;;;;;;26.70;14.90;;;3.00;99.90;;;;;;5094064;28;20767;-88
2021/01/11 04:04:13;;;;;;;28.13;14.97;;;2.90;99.90;;;;;;5099208;28;20255;-87
2021/01/11 04:06:39;;;;;;;25.77;14.97;;;2.90;99.90;;;;;;5088362;28;20205;-87
2021/01/11 04:09:06;;;;;;;28.00;15.97;;;2.90;99.90;;;;;;5088122;28;20226;-87
2021/01/11 04:11:33;;;;;;;24.70;14.60;;;2.90;99.90;;;;;;5094034;28;20208;-87
2021/01/11 04:13:59;;;;;;;25.63;14.57;;;2.90;99.90;;;;;;5091228;28;20213;-87
2021/01/11 04:16:25;;;;;;;26.17;14.87;;;2.90;99.90;;;;;;5095130;28;20209;-87
2021/01/11 04:18:52;;;;;;;29.00;15.80;;;2.90;99.90;;;;;;5090676;28;20783;-87
2021/01/11 04:21:18;;;;;;;26.27;14.53;;;2.90;99.90;;;;;;5107631;28;20205;-87
2021/01/11 04:23:45;;;;;;;25.90;14.40;;;2.90;99.90;;;;;;5109797;28;20202;-87
2021/01/11 04:26:11;;;;;;;26.50;15.57;;;2.90;99.90;;;;;;5100515;28;20205;-87
2021/01/11 04:28:38;;;;;;;26.13;14.87;;;2.90;99.90;;;;;;5109378;28;20202;-87
2021/01/11 04:31:06;;;;;;;23.00;13.97;;;2.90;99.90;;;;;;5075114;28;20259;-87
2021/01/11 04:33:32;;;;;;;28.73;15.03;;;2.90;99.90;;;;;;5075441;28;20218;-89
2021/01/11 04:35:58;;;;;;;23.83;14.13;;;2.90;99.90;;;;;;5085285;28;20198;-87
2021/01/11 04:38:25;;;;;;;25.03;14.60;;;2.90;99.90;;;;;;5090043;28;20199;-87
2021/01/11 04:40:51;;;;;;;28.37;14.93;;;2.90;99.90;;;;;;5096417;28;20664;-88
2021/01/11 04:43:19;;;;;;;28.03;15.27;;;2.90;99.90;;;;;;5091831;28;20194;-87
2021/01/11 04:45:46;;;;;;;24.17;13.73;;;2.90;99.90;;;;;;5076597;28;20636;-86
2021/01/11 04:48:14;;;;;;;26.03;13.90;;;2.90;99.90;;;;;;5084683;28;20195;-87
2021/01/11 04:50:41;;;;;;;24.13;13.23;;;2.90;99.90;;;;;;5104412;28;20606;-88
2021/01/11 04:53:09;;;;;;;23.07;13.20;;;2.90;99.90;;;;;;5078471;28;20229;-88
2021/01/11 04:55:37;;;;;;;24.17;13.13;;;2.90;99.90;;;;;;5088784;28;20623;-87
2021/01/11 04:58:07;;;;;;;23.83;13.00;;;2.90;99.90;;;;;;5094462;28;20202;-89
2021/01/11 05:00:34;;;;;;;21.90;12.33;;;2.90;99.90;;;;;;5077805;28;21569;-88
2021/01/11 05:03:04;;;;;;;23.70;13.03;;;3.00;99.90;;;;;;5093086;28;20194;-86
2021/01/11 05:05:32;;;;;;;22.83;11.93;;;2.90;99.90;;;;;;5089831;28;20212;-87
2021/01/11 05:07:59;;;;;;;24.13;12.30;;;2.90;99.90;;;;;;5088992;28;20257;-87
2021/01/11 05:10:26;;;;;;;23.50;12.20;;;2.90;99.90;;;;;;5089259;28;20225;-88
2021/01/11 05:12:58;;;;;;;22.80;11.97;;;2.90;99.90;;;;;;5087666;28;20227;-87
2021/01/11 05:15:25;;;;;;;19.63;11.53;;;2.90;99.90;;;;;;5083230;28;20197;-88
2021/01/11 05:17:51;;;;;;;22.70;12.13;;;2.90;99.90;;;;;;5097514;28;20201;-88
2021/01/11 05:20:22;;;;;;;25.03;12.53;;;2.90;99.90;;;;;;5087475;28;20217;-87
2021/01/11 05:22:49;;;;;;;28.37;12.57;;;2.90;99.90;;;;;;5114672;28;20215;-88
2021/01/11 05:25:16;;;;;;;21.80;11.43;;;3.00;99.90;;;;;;5102404;28;20224;-88
2021/01/11 05:27:43;;;;;;;24.97;12.67;;;3.00;99.90;;;;;;5094692;28;20212;-88
2021/01/11 05:30:26;;;;;;;19.77;10.57;;;3.00;99.90;;;;;;5093058;28;20217;-88
2021/01/11 05:32:53;;;;;;;24.20;11.73;;;3.00;99.90;;;;;;5095842;28;20224;-87
2021/01/11 05:35:22;;;;;;;24.30;14.00;;;2.90;99.90;;;;;;5084455;28;20195;-87
2021/01/11 05:37:50;;;;;;;25.47;12.93;;;3.00;99.90;;;;;;5092799;28;20205;-87
2021/01/11 05:40:18;;;;;;;24.00;12.03;;;2.90;99.90;;;;;;5112279;28;20339;-87
2021/01/11 05:42:50;;;;;;;23.07;12.80;;;2.90;99.90;;;;;;5114477;28;20292;-87
2021/01/11 05:45:17;;;;;;;24.47;13.40;;;2.90;99.90;;;;;;5099013;28;20202;-88
2021/01/11 05:47:54;;;;;;;23.20;13.70;;;2.90;99.90;;;;;;5095651;28;20357;-87
2021/01/11 05:50:22;;;;;;;23.83;11.90;;;3.00;99.90;;;;;;5109119;28;20237;-88
2021/01/11 05:52:49;;;;;;;22.07;11.90;;;3.00;99.90;;;;;;5115382;28;20227;-88
2021/01/11 05:55:23;;;;;;;21.63;10.97;;;3.00;99.90;;;;;;5098080;28;20680;-87
2021/01/11 05:58:03;;;;;;;19.77;10.93;;;3.00;99.90;;;;;;5095325;28;20582;-86
2021/01/11 06:00:32;;;;;;;22.60;11.33;;;3.00;99.90;;;;;;5091966;28;20278;-88
2021/01/11 06:02:59;;;;;;;20.93;11.07;;;2.90;99.90;;;;;;5093551;28;20212;-87
2021/01/11 06:05:28;;;;;;;21.73;10.57;;;3.00;99.90;;;;;;5092786;28;20210;-87
2021/01/11 06:07:56;;;;;;;19.97;11.17;;;3.00;99.90;;;;;;5095002;28;20208;-87
2021/01/11 06:10:23;;;;;;;19.60;10.50;;;2.90;99.90;;;;;;5087402;28;20217;-87
2021/01/11 06:12:50;;;;;;;21.13;10.77;;;2.90;99.90;;;;;;5089852;28;20213;-87
2021/01/11 06:15:20;;;;;;;18.73;9.77;;;2.90;99.90;;;;;;5095626;28;20292;-87
2021/01/11 06:17:48;;;;;;;21.33;10.03;;;2.90;99.90;;;;;;5097558;28;20678;-89
2021/01/11 06:20:19;;;;;;;21.17;10.83;;;2.90;99.90;;;;;;5094908;28;20218;-87
2021/01/11 06:23:03;;;;;;;19.60;9.37;;;2.90;99.90;;;;;;5087074;28;20239;-88
2021/01/11 06:25:34;;;;;;;21.50;11.33;;;2.90;99.90;;;;;;5098793;28;20217;-87
2021/01/11 06:28:02;;;;;;;19.63;10.43;;;2.90;99.90;;;;;;5100359;28;20214;-88
2021/01/11 06:30:39;;;;;;;19.67;10.17;;;2.90;99.90;;;;;;5105425;28;20269;-87
2021/01/11 06:33:11;;;;;;;21.17;11.00;;;2.80;99.90;;;;;;5087530;28;20225;-88
2021/01/11 06:35:39;;;;;;;18.53;9.27;;;2.80;99.90;;;;;;5095794;28;20719;-88
2021/01/11 06:38:24;;;;;;;21.67;11.13;;;2.80;99.90;;;;;;5097433;28;20201;-88
2021/01/11 06:40:53;;;;;;;20.23;11.33;;;2.80;99.90;;;;;;5106036;28;20196;-88
2021/01/11 06:43:21;;;;;;;27.17;12.17;;;2.90;99.90;;;;;;5118192;28;20197;-88
2021/01/11 06:45:48;;;;;;;21.23;10.90;;;2.90;99.90;;;;;;5106787;28;20201;-88
2021/01/11 06:48:17;;;;;;;19.80;9.70;;;3.00;99.90;;;;;;5095945;28;20201;-87
2021/01/11 06:50:45;;;;;;;18.83;10.20;;;2.90;99.90;;;;;;5094574;28;20214;-88
2021/01/11 06:53:13;;;;;;;21.50;11.07;;;2.80;99.90;;;;;;5109439;28;20231;-88
2021/01/11 06:55:40;;;;;;;21.03;11.47;;;2.80;99.90;;;;;;5106485;28;20620;-88
2021/01/11 06:58:06;;;;;;;20.13;11.17;;;2.80;99.90;;;;;;5105893;28;20208;-86
2021/01/11 07:00:35;;;;;;;24.10;11.57;;;2.80;99.90;;;;;;5112303;28;20222;-88
2021/01/11 07:03:03;;;;;;;20.47;10.80;;;2.80;99.90;;;;;;5097602;28;20733;-87
2021/01/11 07:05:45;;;;;;;20.63;10.57;;;2.80;99.90;;;;;;5096719;28;20231;-87
2021/01/11 07:08:15;;;;;;;21.60;11.00;;;2.80;99.90;;;;;;5090774;28;20205;-88
2021/01/11 07:10:43;;;;;;;19.37;10.97;;;2.80;99.90;;;;;;5097176;28;20695;-87
2021/01/11 07:13:25;;;;;;;18.60;9.43;;;2.80;99.90;;;;;;5096559;28;20218;-88
2021/01/11 07:16:12;;;;;;;18.57;9.93;;;2.80;99.90;;;;;;5088644;28;20190;-88
2021/01/11 07:18:53;;;;;;;21.27;10.87;;;2.70;99.90;;;;;;5091645;28;20201;-88
2021/01/11 07:21:22;;;;;;;20.03;10.77;;;2.70;99.90;;;;;;5091307;28;20331;-87
2021/01/11 07:23:50;;;;;;;21.90;11.43;;;2.70;99.90;;;;;;5095908;28;20198;-88
2021/01/11 07:26:18;;;;;;;21.83;11.37;;;2.70;99.90;;;;;;5092691;28;20201;-89
2021/01/11 07:28:59;;;;;;;22.43;10.30;;;2.70;99.90;;;;;;5083493;28;20230;-89
2021/01/11 07:31:31;;;;;;;25.17;10.83;;;2.70;99.90;;;;;;5088343;28;20209;-88
2021/01/11 07:34:06;;;;;;;19.30;10.50;;;2.70;99.90;;;;;;5094685;28;20223;-89
2021/01/11 07:36:38;;;;;;;21.53;10.83;;;2.70;99.90;;;;;;5095369;28;20729;-89
2021/01/11 07:39:19;;;;;;;20.10;10.93;;;3.00;99.90;;;;;;5095586;28;20351;-88
2021/01/11 07:41:47;;;;;;;20.40;10.67;;;3.10;99.90;;;;;;5094986;28;20206;-88
2021/01/11 07:44:25;;;;;;;23.00;10.43;;;2.80;99.90;;;;;;5097425;28;20193;-87
2021/01/11 07:46:53;;;;;;;22.77;11.87;;;2.90;99.90;;;;;;5108023;28;20647;-88
2021/01/11 07:49:20;;;;;;;22.13;10.77;;;2.80;99.90;;;;;;5104228;28;20218;-89
2021/01/11 07:51:51;;;;;;;22.30;11.37;;;2.70;99.90;;;;;;5098591;28;20201;-88
2021/01/11 07:54:19;;;;;;;21.33;10.43;;;2.70;99.90;;;;;;5096969;28;20275;-88
2021/01/11 07:56:50;;;;;;;20.63;11.87;;;2.80;99.90;;;;;;5099480;28;20566;-88
2021/01/11 07:59:19;;;;;;;17.90;9.40;;;2.80;99.90;;;;;;5094197;28;20288;-88
2021/01/11 08:01:47;;;;;;;20.13;10.87;;;2.80;99.90;;;;;;5092925;28;20947;-88
2021/01/11 08:04:14;;;;;;;22.77;11.73;;;2.80;99.90;;;;;;5100961;28;20204;-88
2021/01/11 08:06:47;;;;;;;21.67;10.77;;;2.80;99.90;;;;;;5100444;28;20205;-88
2021/01/11 08:09:14;;;;;;;19.30;10.53;;;2.80;99.90;;;;;;5095660;28;20229;-88
2021/01/11 08:11:45;;;;;;;21.17;10.37;;;2.80;99.90;;;;;;5090176;28;20197;-88
2021/01/11 08:14:14;;;;;;;22.37;10.83;;;2.80;99.90;;;;;;5092779;28;20401;-88
2021/01/11 08:16:44;;;;;;;22.50;9.93;;;2.80;99.90;;;;;;5093468;28;20224;-88
2021/01/11 08:19:12;;;;;;;20.97;10.57;;;2.70;99.90;;;;;;5094320;28;20225;-88
2021/01/11 08:21:39;;;;;;;24.27;10.23;;;2.80;99.90;;;;;;5095464;28;20287;-88
2021/01/11 08:24:07;;;;;;;21.67;10.80;;;2.80;99.90;;;;;;5102866;22;20675;-78
2021/01/11 08:26:40;;;;;;;22.30;11.30;;;2.80;99.90;;;;;;5071418;28;20205;-78
2021/01/11 08:29:08;;;;;;;22.13;11.27;;;2.70;99.90;;;;;;5070687;28;20213;-78
2021/01/11 08:31:37;;;;;;;20.83;10.73;;;2.70;99.90;;;;;;5071541;28;20202;-79
2021/01/11 08:34:03;;;;;;;21.43;11.93;;;2.70;99.90;;;;;;5071636;28;20229;-79
2021/01/11 08:36:31;;;;;;;23.53;11.13;;;2.70;99.90;;;;;;5072965;28;20210;-79
2021/01/11 08:39:13;;;;;;;22.27;11.00;;;2.60;99.90;;;;;;5065695;28;20317;-79
2021/01/11 08:41:46;;;;;;;18.87;9.77;;;2.70;99.90;;;;;;5071075;28;20194;-79
2021/01/11 08:44:31;;;;;;;21.47;10.80;;;2.70;99.90;;;;;;5053081;28;20201;-79
2021/01/11 08:47:07;;;;;;;19.10;10.50;;;2.60;99.90;;;;;;5071400;28;20656;-78
2021/01/11 08:49:34;;;;;;;21.97;11.30;;;2.70;99.90;;;;;;5064947;28;20706;-78
2021/01/11 08:52:11;;;;;;;23.37;12.03;;;2.70;99.90;;;;;;5070504;28;20285;-78
2021/01/11 08:54:38;;;;;;;22.57;11.23;;;2.60;99.90;;;;;;5072492;28;20218;-78
2021/01/11 08:57:13;;;;;;;21.77;10.80;;;2.60;99.90;;;;;;5070073;28;20474;-77
2021/01/11 08:59:49;;;;;;;23.60;11.50;;;2.70;99.90;;;;;;5071871;28;20213;-78
2021/01/11 09:02:29;;;;;;;22.87;11.50;;;2.60;99.90;;;;;;5071985;28;20262;-78
2021/01/11 09:04:57;;;;;;;21.23;11.70;;;2.70;99.90;;;;;;5071858;28;20568;-78
2021/01/11 09:07:31;;;;;;;22.97;11.43;;;2.70;99.90;;;;;;5072043;28;20218;-78
2021/01/11 09:09:59;;;;;;;22.33;10.77;;;2.60;99.90;;;;;;5065404;28;20243;-78
2021/01/11 09:12:34;;;;;;;22.50;11.20;;;2.70;99.90;;;;;;5071508;28;20309;-79
2021/01/11 09:15:02;;;;;;;22.87;11.20;;;2.60;99.90;;;;;;5072219;28;20218;-79
2021/01/11 09:17:30;;;;;;;21.20;10.67;;;2.60;99.90;;;;;;5071789;28;20202;-79
2021/01/11 09:20:00;;;;;;;24.50;11.50;;;2.60;99.90;;;;;;5071232;28;20652;-79
2021/01/11 09:22:35;;;;;;;21.37;10.80;;;2.70;99.90;;;;;;5071941;28;20202;-79
2021/01/11 09:25:06;;;;;;;19.90;10.43;;;2.70;99.90;;;;;;5067912;28;20224;-79
2021/01/11 09:27:33;;;;;;;19.37;9.80;;;2.70;99.90;;;;;;5071777;28;20836;-79
2021/01/11 09:30:01;;;;;;;22.33;10.50;;;2.70;99.90;;;;;;5068094;28;20214;-79
2021/01/11 09:32:29;;;;;;;21.77;10.00;;;2.70;99.90;;;;;;5071983;28;20569;-79
2021/01/11 09:34:55;;;;;;;22.67;9.87;;;2.70;99.90;;;;;;5071069;28;20261;-77
2021/01/11 09:37:21;;;;;;;23.03;10.63;;;2.70;99.90;;;;;;5071747;28;20216;-79
2021/01/11 09:39:48;;;;;;;22.23;9.77;;;2.80;99.90;;;;;;5071109;28;20217;-79
2021/01/11 09:42:14;;;;;;;19.67;8.93;;;2.90;99.90;;;;;;5071655;28;20210;-79
2021/01/11 09:44:42;;;;;;;18.20;9.40;;;2.80;99.90;;;;;;5071500;28;20652;-79
2021/01/11 09:47:09;;;;;;;20.77;10.10;;;2.90;99.90;;;;;;5071872;28;20703;-78
2021/01/11 09:49:35;;;;;;;20.67;9.87;;;2.90;99.90;;;;;;5070479;28;20256;-79
2021/01/11 09:52:03;;;;;;;21.33;9.40;;;3.00;99.90;;;;;;5071438;28;20798;-78
2021/01/11 09:54:30;;;;;;;21.93;8.53;;;2.90;99.90;;;;;;5071340;28;20272;-79
2021/01/11 09:56:59;;;;;;;18.40;8.83;;;3.00;99.90;;;;;;5070807;28;20210;-80
2021/01/11 09:59:26;;;;;;;20.47;8.37;;;3.00;99.90;;;;;;5066870;28;20210;-80
2021/01/11 10:01:54;;;;;;;21.27;8.80;;;3.00;99.90;;;;;;5071153;28;20203;-80
2021/01/11 10:04:21;;;;;;;20.40;9.13;;;3.00;99.90;;;;;;5070951;28;20236;-79
2021/01/11 10:06:49;;;;;;;24.07;8.17;;;3.00;99.90;;;;;;5071365;28;20208;-79
2021/01/11 10:09:17;;;;;;;18.10;8.20;;;3.00;99.90;;;;;;5071014;28;20674;-79
2021/01/11 10:11:46;;;;;;;21.13;9.17;;;3.10;99.90;;;;;;5071191;28;20206;-79
2021/01/11 10:14:12;;;;;;;19.43;8.37;;;3.10;99.90;;;;;;5071249;28;20264;-78
2021/01/11 10:16:40;;;;;;;17.13;7.87;;;3.10;99.90;;;;;;5071425;28;20576;-78
2021/01/11 10:19:06;;;;;;;16.10;8.23;;;3.10;99.90;;;;;;5070236;28;20554;-78
2021/01/11 10:21:33;;;;;;;19.53;8.33;;;3.10;99.90;;;;;;5071410;28;20267;-79
2021/01/11 10:24:00;;;;;;;14.50;7.40;;;3.10;99.90;;;;;;5071328;28;20214;-78
2021/01/11 10:26:26;;;;;;;17.00;8.20;;;3.20;99.90;;;;;;5070878;28;20198;-78
2021/01/11 10:28:52;;;;;;;14.97;7.77;;;3.10;99.90;;;;;;5070721;28;20301;-78
2021/01/11 10:31:20;;;;;;;17.37;7.97;;;3.20;99.90;;;;;;5071622;28;20247;-79
2021/01/11 10:33:47;;;;;;;16.13;7.10;;;3.20;99.90;;;;;;5070555;28;20226;-78
2021/01/11 10:36:13;;;;;;;15.10;7.27;;;3.10;99.90;;;;;;5071427;28;20658;-78
2021/01/11 10:38:41;;;;;;;16.80;7.60;;;3.20;99.90;;;;;;5070958;28;20262;-78
2021/01/11 10:41:08;;;;;;;15.47;7.40;;;3.20;99.90;;;;;;5070812;28;20199;-79
2021/01/11 10:43:34;;;;;;;16.03;7.70;;;3.30;99.90;;;;;;5070801;28;20637;-78
2021/01/11 10:46:01;;;;;;;18.63;8.37;;;3.30;99.90;;;;;;5070180;28;20194;-78
2021/01/11 10:48:28;;;;;;;17.40;8.30;;;3.30;99.90;;;;;;5070119;28;20198;-78
2021/01/11 10:50:54;;;;;;;15.50;7.60;;;3.30;99.90;;;;;;5070532;28;20244;-78
2021/01/11 10:53:21;;;;;;;15.87;7.63;;;3.30;99.90;;;;;;5070948;28;20222;-77
2021/01/11 10:55:48;;;;;;;17.13;8.00;;;3.30;99.90;;;;;;5065032;28;20676;-78
2021/01/11 10:58:15;;;;;;;17.60;8.17;;;3.20;99.90;;;;;;5065940;28;20656;-78
2021/01/11 11:00:41;;;;;;;17.13;7.73;;;3.30;99.90;;;;;;5070042;28;20676;-78
2021/01/11 11:03:08;;;;;;;14.57;7.57;;;3.30;99.90;;;;;;5071059;28;20213;-77
2021/01/11 11:05:34;;;;;;;14.07;6.80;;;3.30;99.90;;;;;;5071349;28;20194;-79
2021/01/11 11:08:02;;;;;;;18.53;8.27;;;3.20;99.90;;;;;;5071387;28;20202;-78
2021/01/11 11:10:28;;;;;;;15.60;7.43;;;3.30;99.90;;;;;;5070698;28;20281;-78
2021/01/11 11:12:55;;;;;;;15.03;7.23;;;3.30;99.90;;;;;;5071158;28;20209;-78
2021/01/11 11:15:22;;;;;;;17.63;8.17;;;3.30;99.90;;;;;;5069580;28;20225;-78
2021/01/11 11:17:48;;;;;;;14.67;7.57;;;3.30;99.90;;;;;;5071421;28;20220;-79
2021/01/11 11:20:15;;;;;;;16.73;7.67;;;3.30;99.90;;;;;;5070460;28;20202;-79
2021/01/11 11:22:42;;;;;;;17.03;8.13;;;3.30;99.90;;;;;;5072563;28;20199;-78
2021/01/11 11:25:09;;;;;;;16.13;7.80;;;3.30;99.90;;;;;;5072410;28;20271;-78
2021/01/11 11:27:36;;;;;;;16.93;8.00;;;3.30;99.90;;;;;;5071711;28;20198;-78
2021/01/11 11:30:06;;;;;;;14.80;7.40;;;3.40;99.90;;;;;;5069702;28;20629;-78
2021/01/11 11:32:34;;;;;;;16.97;8.07;;;3.40;99.90;;;;;;5070138;28;20249;-78
2021/01/11 11:35:04;;;;;;;14.73;7.27;;;3.40;99.90;;;;;;5070833;28;20752;-78
2021/01/11 11:37:32;;;;;;;15.50;8.20;;;3.30;99.90;;;;;;5071049;28;20194;-78
2021/01/11 11:39:58;;;;;;;15.17;7.37;;;3.40;99.90;;;;;;5070684;28;20214;-78
2021/01/11 11:42:24;;;;;;;17.10;7.47;;;3.50;99.90;;;;;;5071277;28;20289;-78
2021/01/11 11:44:51;;;;;;;14.57;7.37;;;3.50;99.90;;;;;;5069998;28;20203;-78
2021/01/11 11:47:18;;;;;;;15.97;7.40;;;3.40;99.90;;;;;;5071270;28;20202;-78
2021/01/11 11:49:45;;;;;;;18.07;8.60;;;3.50;99.90;;;;;;5070000;28;20209;-79
2021/01/11 11:52:12;;;;;;;15.70;7.87;;;3.50;99.90;;;;;;5071439;28;20203;-79
2021/01/11 11:54:38;;;;;;;14.97;8.00;;;3.50;99.90;;;;;;5071554;28;20229;-79
2021/01/11 11:57:04;;;;;;;15.73;7.80;;;3.50;99.90;;;;;;5067897;28;20431;-78
2021/01/11 11:59:31;;;;;;;18.80;8.77;;;3.50;99.90;;;;;;5062094;28;20938;-79
2021/01/11 12:01:57;;;;;;;17.37;7.87;;;3.50;99.90;;;;;;5064139;28;20199;-79
2021/01/11 12:04:24;;;;;;;16.03;8.20;;;3.50;99.90;;;;;;5068429;28;20198;-79
2021/01/11 12:06:51;;;;;;;15.20;8.37;;;3.50;99.90;;;;;;5063161;28;20211;-79
2021/01/11 12:09:17;;;;;;;15.60;7.70;;;3.50;99.90;;;;;;5065219;28;20271;-79
2021/01/11 12:11:45;;;;;;;15.37;7.83;;;3.50;99.90;;;;;;5068661;28;20297;-79
2021/01/11 12:14:11;;;;;;;13.03;6.33;;;3.60;99.90;;;;;;5068867;28;20586;-79
2021/01/11 12:16:38;;;;;;;16.47;7.67;;;3.60;99.90;;;;;;5067578;28;20206;-80
2021/01/11 12:19:04;;;;;;;15.73;8.20;;;3.60;99.90;;;;;;5062259;28;20215;-79
2021/01/11 12:21:33;;;;;;;14.00;7.20;;;3.60;99.90;;;;;;5064350;28;20665;-79
2021/01/11 12:24:00;;;;;;;15.37;8.33;;;3.50;99.90;;;;;;5066091;28;20570;-79
2021/01/11 12:26:27;;;;;;;16.43;8.57;;;3.60;99.90;;;;;;5069178;28;20202;-79
2021/01/11 12:28:54;;;;;;;17.53;9.07;;;3.70;99.90;;;;;;5067364;28;20210;-78
2021/01/11 12:31:27;;;;;;;17.77;8.70;;;3.70;99.90;;;;;;5068591;28;20214;-78
2021/01/11 12:33:53;;;;;;;16.93;8.90;;;3.70;99.90;;;;;;5068399;28;20726;-78
2021/01/11 12:36:22;;;;;;;16.57;8.37;;;3.70;99.90;;;;;;5068872;28;20198;-78
2021/01/11 12:38:50;;;;;;;14.83;7.87;;;3.70;99.90;;;;;;5067026;28;20225;-78
2021/01/11 12:41:18;;;;;;;14.93;8.57;;;3.70;99.90;;;;;;5068424;28;20637;-79
2021/01/11 12:43:44;;;;;;;17.23;8.73;;;3.70;99.90;;;;;;5067766;28;20198;-77
2021/01/11 12:46:11;;;;;;;20.10;9.30;;;3.70;99.90;;;;;;5070737;28;20202;-78
2021/01/11 12:48:38;;;;;;;18.40;9.60;;;3.80;99.90;;;;;;5065490;28;20297;-79